sensor_id;sensor_type;location;lat;lon;timestamp;P1;durP1;ratioP1;P2;durP2;ratioP2
72201;SDS011;60105;54.956;73.412;2023-03-01T00:02:40;10.38;;;5.75;;
72201;SDS011;60105;54.956;73.412;2023-03-01T00:05:47;10.03;;;4.63;;
72201;SDS011;60105;54.956;73.412;2023-03-01T00:08:53;9.32;;;5.88;;
72201;SDS011;60105;54.956;73.412;2023-03-01T00:12:04;8.90;;;5.70;;
72201;SDS011;60105;54.956;73.412;2023-03-01T00:15:06;8.68;;;5.93;;
72201;SDS011;60105;54.956;73.412;2023-03-01T00:18:08;8.27;;;5.15;;
72201;SDS011;60105;54.956;73.412;2023-03-01T00:21:19;9.55;;;6.13;;
72201;SDS011;60105;54.956;73.412;2023-03-01T00:24:22;10.75;;;6.22;;
72201;SDS011;60105;54.956;73.412;2023-03-01T00:27:28;14.40;;;6.50;;
72201;SDS011;60105;54.956;73.412;2023-03-01T00:30:29;12.18;;;6.13;;
72201;SDS011;60105;54.956;73.412;2023-03-01T00:33:41;10.50;;;6.63;;
72201;SDS011;60105;54.956;73.412;2023-03-01T00:36:48;10.13;;;6.45;;
72201;SDS011;60105;54.956;73.412;2023-03-01T00:39:49;9.55;;;4.82;;
72201;SDS011;60105;54.956;73.412;2023-03-01T00:42:51;10.20;;;5.63;;
72201;SDS011;60105;54.956;73.412;2023-03-01T00:45:52;10.63;;;6.00;;
72201;SDS011;60105;54.956;73.412;2023-03-01T00:48:53;10.05;;;6.13;;
72201;SDS011;60105;54.956;73.412;2023-03-01T00:52:00;12.40;;;6.50;;
72201;SDS011;60105;54.956;73.412;2023-03-01T00:55:02;12.83;;;7.03;;
72201;SDS011;60105;54.956;73.412;2023-03-01T00:58:04;11.75;;;6.60;;
72201;SDS011;60105;54.956;73.412;2023-03-01T01:01:12;11.68;;;6.57;;
72201;SDS011;60105;54.956;73.412;2023-03-01T01:07:40;11.07;;;6.23;;
72201;SDS011;60105;54.956;73.412;2023-03-01T01:10:43;10.90;;;5.43;;
72201;SDS011;60105;54.956;73.412;2023-03-01T01:13:55;11.37;;;6.23;;
72201;SDS011;60105;54.956;73.412;2023-03-01T01:16:57;11.57;;;5.72;;
72201;SDS011;60105;54.956;73.412;2023-03-01T01:19:58;9.80;;;5.90;;
72201;SDS011;60105;54.956;73.412;2023-03-01T01:23:04;12.20;;;6.43;;
72201;SDS011;60105;54.956;73.412;2023-03-01T01:26:08;10.33;;;6.53;;
72201;SDS011;60105;54.956;73.412;2023-03-01T01:32:45;11.05;;;5.88;;
72201;SDS011;60105;54.956;73.412;2023-03-01T01:35:51;9.40;;;5.97;;
72201;SDS011;60105;54.956;73.412;2023-03-01T01:39:38;12.07;;;6.85;;
72201;SDS011;60105;54.956;73.412;2023-03-01T01:42:49;14.48;;;7.93;;
72201;SDS011;60105;54.956;73.412;2023-03-01T01:45:51;15.60;;;7.53;;
72201;SDS011;60105;54.956;73.412;2023-03-01T01:52:45;20.50;;;9.57;;
72201;SDS011;60105;54.956;73.412;2023-03-01T01:55:51;21.03;;;8.77;;
72201;SDS011;60105;54.956;73.412;2023-03-01T01:59:39;28.30;;;11.04;;
72201;SDS011;60105;54.956;73.412;2023-03-01T02:02:44;50.80;;;19.58;;
72201;SDS011;60105;54.956;73.412;2023-03-01T02:08:50;46.80;;;19.95;;
72201;SDS011;60105;54.956;73.412;2023-03-01T02:12:03;37.40;;;14.20;;
72201;SDS011;60105;54.956;73.412;2023-03-01T02:15:15;44.37;;;15.10;;
72201;SDS011;60105;54.956;73.412;2023-03-01T02:18:21;37.55;;;15.43;;
72201;SDS011;60105;54.956;73.412;2023-03-01T02:28:32;29.35;;;14.05;;
72201;SDS011;60105;54.956;73.412;2023-03-01T02:31:36;24.98;;;11.68;;
72201;SDS011;60105;54.956;73.412;2023-03-01T02:34:56;23.77;;;11.23;;
72201;SDS011;60105;54.956;73.412;2023-03-01T02:37:58;15.63;;;8.93;;
72201;SDS011;60105;54.956;73.412;2023-03-01T02:41:06;19.48;;;10.18;;
72201;SDS011;60105;54.956;73.412;2023-03-01T02:44:39;19.17;;;9.57;;
72201;SDS011;60105;54.956;73.412;2023-03-01T02:47:45;16.58;;;9.32;;
72201;SDS011;60105;54.956;73.412;2023-03-01T02:57:25;19.20;;;9.90;;
72201;SDS011;60105;54.956;73.412;2023-03-01T03:00:30;13.70;;;10.15;;
72201;SDS011;60105;54.956;73.412;2023-03-01T03:03:38;14.13;;;8.93;;
72201;SDS011;60105;54.956;73.412;2023-03-01T03:06:39;13.77;;;7.73;;
72201;SDS011;60105;54.956;73.412;2023-03-01T03:09:51;13.43;;;7.97;;
72201;SDS011;60105;54.956;73.412;2023-03-01T03:13:02;19.27;;;9.98;;
72201;SDS011;60105;54.956;73.412;2023-03-01T03:16:05;16.57;;;10.80;;
72201;SDS011;60105;54.956;73.412;2023-03-01T03:19:39;25.58;;;11.77;;
72201;SDS011;60105;54.956;73.412;2023-03-01T03:22:40;19.50;;;10.68;;
72201;SDS011;60105;54.956;73.412;2023-03-01T03:25:42;25.13;;;12.10;;
72201;SDS011;60105;54.956;73.412;2023-03-01T03:28:53;17.77;;;11.73;;
72201;SDS011;60105;54.956;73.412;2023-03-01T03:32:04;17.73;;;10.37;;
72201;SDS011;60105;54.956;73.412;2023-03-01T03:35:06;14.43;;;9.25;;
72201;SDS011;60105;54.956;73.412;2023-03-01T03:38:10;15.43;;;11.57;;
72201;SDS011;60105;54.956;73.412;2023-03-01T03:41:16;19.87;;;11.87;;
72201;SDS011;60105;54.956;73.412;2023-03-01T03:47:40;18.07;;;10.97;;
72201;SDS011;60105;54.956;73.412;2023-03-01T03:50:46;17.27;;;10.30;;
72201;SDS011;60105;54.956;73.412;2023-03-01T03:53:49;16.08;;;10.38;;
72201;SDS011;60105;54.956;73.412;2023-03-01T03:56:55;12.53;;;7.83;;
72201;SDS011;60105;54.956;73.412;2023-03-01T03:59:56;14.68;;;8.38;;
72201;SDS011;60105;54.956;73.412;2023-03-01T04:02:58;13.95;;;8.43;;
72201;SDS011;60105;54.956;73.412;2023-03-01T04:05:59;13.85;;;8.30;;
72201;SDS011;60105;54.956;73.412;2023-03-01T04:09:39;14.45;;;7.63;;
72201;SDS011;60105;54.956;73.412;2023-03-01T04:12:46;13.10;;;8.23;;
72201;SDS011;60105;54.956;73.412;2023-03-01T04:15:57;17.83;;;7.63;;
72201;SDS011;60105;54.956;73.412;2023-03-01T04:19:39;11.82;;;7.80;;
72201;SDS011;60105;54.956;73.412;2023-03-01T04:22:42;16.60;;;9.82;;
72201;SDS011;60105;54.956;73.412;2023-03-01T04:25:54;15.75;;;9.52;;
72201;SDS011;60105;54.956;73.412;2023-03-01T04:29:39;18.30;;;9.52;;
72201;SDS011;60105;54.956;73.412;2023-03-01T04:32:45;19.73;;;9.77;;
72201;SDS011;60105;54.956;73.412;2023-03-01T04:35:46;17.42;;;9.07;;
72201;SDS011;60105;54.956;73.412;2023-03-01T04:39:39;14.60;;;9.40;;
72201;SDS011;60105;54.956;73.412;2023-03-01T04:42:46;17.40;;;9.65;;
72201;SDS011;60105;54.956;73.412;2023-03-01T04:45:47;15.20;;;9.23;;
72201;SDS011;60105;54.956;73.412;2023-03-01T04:48:53;15.50;;;9.30;;
72201;SDS011;60105;54.956;73.412;2023-03-01T04:52:05;15.27;;;8.73;;
72201;SDS011;60105;54.956;73.412;2023-03-01T04:55:06;12.43;;;8.93;;
72201;SDS011;60105;54.956;73.412;2023-03-01T04:58:08;15.02;;;9.32;;
72201;SDS011;60105;54.956;73.412;2023-03-01T05:01:16;16.27;;;9.55;;
72201;SDS011;60105;54.956;73.412;2023-03-01T05:07:50;19.20;;;10.40;;
72201;SDS011;60105;54.956;73.412;2023-03-01T05:10:52;16.90;;;9.60;;
72201;SDS011;60105;54.956;73.412;2023-03-01T05:14:39;17.52;;;9.18;;
72201;SDS011;60105;54.956;73.412;2023-03-01T05:17:48;22.70;;;11.05;;
72201;SDS011;60105;54.956;73.412;2023-03-01T05:24:09;17.74;;;10.54;;
72201;SDS011;60105;54.956;73.412;2023-03-01T05:27:12;16.67;;;9.97;;
72201;SDS011;60105;54.956;73.412;2023-03-01T05:30:18;16.87;;;9.47;;
72201;SDS011;60105;54.956;73.412;2023-03-01T05:33:30;16.88;;;10.23;;
72201;SDS011;60105;54.956;73.412;2023-03-01T05:36:31;17.00;;;9.70;;
72201;SDS011;60105;54.956;73.412;2023-03-01T05:42:42;13.57;;;9.65;;
72201;SDS011;60105;54.956;73.412;2023-03-01T05:45:44;18.00;;;10.10;;
72201;SDS011;60105;54.956;73.412;2023-03-01T05:48:45;13.63;;;9.27;;
72201;SDS011;60105;54.956;73.412;2023-03-01T05:51:50;18.30;;;10.53;;
72201;SDS011;60105;54.956;73.412;2023-03-01T05:54:52;16.27;;;9.20;;
72201;SDS011;60105;54.956;73.412;2023-03-01T05:57:53;14.88;;;9.00;;
72201;SDS011;60105;54.956;73.412;2023-03-01T06:01:00;15.55;;;9.57;;
72201;SDS011;60105;54.956;73.412;2023-03-01T06:04:38;16.05;;;9.43;;
72201;SDS011;60105;54.956;73.412;2023-03-01T06:07:39;15.02;;;8.85;;
72201;SDS011;60105;54.956;73.412;2023-03-01T06:10:47;14.77;;;9.00;;
72201;SDS011;60105;54.956;73.412;2023-03-01T06:13:48;15.88;;;9.85;;
72201;SDS011;60105;54.956;73.412;2023-03-01T06:16:49;16.38;;;8.57;;
72201;SDS011;60105;54.956;73.412;2023-03-01T06:20:01;14.33;;;9.27;;
72201;SDS011;60105;54.956;73.412;2023-03-01T06:23:09;17.05;;;9.88;;
72201;SDS011;60105;54.956;73.412;2023-03-01T06:26:10;16.93;;;8.83;;
72201;SDS011;60105;54.956;73.412;2023-03-01T06:29:39;16.98;;;8.25;;
72201;SDS011;60105;54.956;73.412;2023-03-01T06:32:40;18.20;;;10.37;;
72201;SDS011;60105;54.956;73.412;2023-03-01T06:35:44;20.00;;;10.30;;
72201;SDS011;60105;54.956;73.412;2023-03-01T06:38:46;17.70;;;11.07;;
72201;SDS011;60105;54.956;73.412;2023-03-01T06:41:48;18.60;;;10.93;;
72201;SDS011;60105;54.956;73.412;2023-03-01T06:44:49;17.53;;;11.10;;
72201;SDS011;60105;54.956;73.412;2023-03-01T06:47:50;18.42;;;11.15;;
72201;SDS011;60105;54.956;73.412;2023-03-01T06:51:00;21.70;;;11.63;;
72201;SDS011;60105;54.956;73.412;2023-03-01T06:54:07;18.50;;;11.05;;
72201;SDS011;60105;54.956;73.412;2023-03-01T06:57:09;18.42;;;11.18;;
72201;SDS011;60105;54.956;73.412;2023-03-01T07:00:20;17.60;;;10.82;;
72201;SDS011;60105;54.956;73.412;2023-03-01T07:03:22;21.63;;;11.00;;
72201;SDS011;60105;54.956;73.412;2023-03-01T07:06:29;21.17;;;11.80;;
72201;SDS011;60105;54.956;73.412;2023-03-01T07:12:50;18.42;;;10.35;;
72201;SDS011;60105;54.956;73.412;2023-03-01T07:15:54;22.40;;;11.73;;
72201;SDS011;60105;54.956;73.412;2023-03-01T07:19:39;26.16;;;13.06;;
72201;SDS011;60105;54.956;73.412;2023-03-01T07:22:40;25.33;;;13.17;;
72201;SDS011;60105;54.956;73.412;2023-03-01T07:25:42;20.48;;;11.80;;
72201;SDS011;60105;54.956;73.412;2023-03-01T07:28:54;24.80;;;13.20;;
72201;SDS011;60105;54.956;73.412;2023-03-01T07:31:55;26.42;;;13.05;;
72201;SDS011;60105;54.956;73.412;2023-03-01T07:35:02;20.27;;;12.33;;
72201;SDS011;60105;54.956;73.412;2023-03-01T07:38:09;18.98;;;12.40;;
72201;SDS011;60105;54.956;73.412;2023-03-01T07:41:10;20.67;;;10.37;;
72201;SDS011;60105;54.956;73.412;2023-03-01T07:47:50;20.70;;;11.30;;
72201;SDS011;60105;54.956;73.412;2023-03-01T07:50:52;21.07;;;11.87;;
72201;SDS011;60105;54.956;73.412;2023-03-01T07:53:54;22.17;;;12.35;;
72201;SDS011;60105;54.956;73.412;2023-03-01T07:57:00;21.23;;;12.45;;
72201;SDS011;60105;54.956;73.412;2023-03-01T08:00:02;19.40;;;11.13;;
72201;SDS011;60105;54.956;73.412;2023-03-01T08:03:12;18.13;;;10.80;;
72201;SDS011;60105;54.956;73.412;2023-03-01T08:06:15;17.73;;;11.15;;
72201;SDS011;60105;54.956;73.412;2023-03-01T08:12:45;19.60;;;10.47;;
72201;SDS011;60105;54.956;73.412;2023-03-01T08:15:46;17.48;;;10.18;;
72201;SDS011;60105;54.956;73.412;2023-03-01T08:18:48;18.05;;;11.23;;
72201;SDS011;60105;54.956;73.412;2023-03-01T08:21:49;16.60;;;10.30;;
72201;SDS011;60105;54.956;73.412;2023-03-01T08:24:50;18.02;;;11.40;;
72201;SDS011;60105;54.956;73.412;2023-03-01T08:27:51;16.80;;;10.02;;
72201;SDS011;60105;54.956;73.412;2023-03-01T08:30:58;22.80;;;11.07;;
72201;SDS011;60105;54.956;73.412;2023-03-01T08:34:39;14.70;;;9.13;;
72201;SDS011;60105;54.956;73.412;2023-03-01T08:37:48;22.58;;;9.75;;
72201;SDS011;60105;54.956;73.412;2023-03-01T08:40:50;15.10;;;9.77;;
72201;SDS011;60105;54.956;73.412;2023-03-01T08:43:51;18.23;;;9.45;;
72201;SDS011;60105;54.956;73.412;2023-03-01T08:46:53;15.13;;;9.48;;
72201;SDS011;60105;54.956;73.412;2023-03-01T08:49:56;15.95;;;10.15;;
72201;SDS011;60105;54.956;73.412;2023-03-01T08:52:57;16.90;;;8.90;;
72201;SDS011;60105;54.956;73.412;2023-03-01T08:56:04;13.40;;;7.90;;
72201;SDS011;60105;54.956;73.412;2023-03-01T09:02:40;15.35;;;9.15;;
72201;SDS011;60105;54.956;73.412;2023-03-01T09:05:41;16.92;;;9.38;;
72201;SDS011;60105;54.956;73.412;2023-03-01T09:08:43;16.03;;;9.10;;
72201;SDS011;60105;54.956;73.412;2023-03-01T09:11:46;13.63;;;8.90;;
72201;SDS011;60105;54.956;73.412;2023-03-01T09:14:50;15.23;;;7.73;;
72201;SDS011;60105;54.956;73.412;2023-03-01T09:17:51;16.67;;;9.43;;
72201;SDS011;60105;54.956;73.412;2023-03-01T09:20:53;17.07;;;10.13;;
72201;SDS011;60105;54.956;73.412;2023-03-01T09:24:12;17.10;;;10.03;;
72201;SDS011;60105;54.956;73.412;2023-03-01T09:27:15;17.23;;;9.55;;
72201;SDS011;60105;54.956;73.412;2023-03-01T09:30:30;17.33;;;9.70;;
72201;SDS011;60105;54.956;73.412;2023-03-01T09:33:31;12.98;;;8.63;;
72201;SDS011;60105;54.956;73.412;2023-03-01T09:36:39;17.83;;;10.90;;
72201;SDS011;60105;54.956;73.412;2023-03-01T09:39:40;9.40;;;5.70;;
72201;SDS011;60105;54.956;73.412;2023-03-01T09:42:49;19.20;;;10.73;;
72201;SDS011;60105;54.956;73.412;2023-03-01T09:46:04;19.10;;;10.30;;
72201;SDS011;60105;54.956;73.412;2023-03-01T09:52:43;16.48;;;9.35;;
72201;SDS011;60105;54.956;73.412;2023-03-01T09:55:55;16.00;;;9.82;;
72201;SDS011;60105;54.956;73.412;2023-03-01T09:59:46;18.45;;;9.10;;
72201;SDS011;60105;54.956;73.412;2023-03-01T10:03:33;19.27;;;10.68;;
72201;SDS011;60105;54.956;73.412;2023-03-01T10:06:35;16.33;;;10.48;;
72201;SDS011;60105;54.956;73.412;2023-03-01T10:12:42;15.50;;;9.83;;
72201;SDS011;60105;54.956;73.412;2023-03-01T10:15:48;17.67;;;10.50;;
72201;SDS011;60105;54.956;73.412;2023-03-01T10:19:40;15.82;;;9.88;;
72201;SDS011;60105;54.956;73.412;2023-03-01T10:22:43;20.75;;;11.00;;
72201;SDS011;60105;54.956;73.412;2023-03-01T10:25:55;17.17;;;9.50;;
72201;SDS011;60105;54.956;73.412;2023-03-01T10:33:32;17.73;;;9.68;;
72201;SDS011;60105;54.956;73.412;2023-03-01T10:36:50;18.83;;;10.43;;
72201;SDS011;60105;54.956;73.412;2023-03-01T10:40:05;16.90;;;10.00;;
72201;SDS011;60105;54.956;73.412;2023-03-01T10:43:10;19.13;;;10.65;;
72201;SDS011;60105;54.956;73.412;2023-03-01T10:46:29;18.25;;;10.05;;
72201;SDS011;60105;54.956;73.412;2023-03-01T10:52:40;17.73;;;9.77;;
72201;SDS011;60105;54.956;73.412;2023-03-01T10:55:42;20.27;;;10.93;;
72201;SDS011;60105;54.956;73.412;2023-03-01T11:05:18;19.10;;;9.82;;
72201;SDS011;60105;54.956;73.412;2023-03-01T11:08:32;20.20;;;11.25;;
72201;SDS011;60105;54.956;73.412;2023-03-01T11:11:38;20.70;;;11.27;;
72201;SDS011;60105;54.956;73.412;2023-03-01T11:14:50;15.60;;;9.10;;
72201;SDS011;60105;54.956;73.412;2023-03-01T11:17:58;21.10;;;10.27;;
72201;SDS011;60105;54.956;73.412;2023-03-01T11:20:59;25.60;;;11.60;;
72201;SDS011;60105;54.956;73.412;2023-03-01T11:24:11;22.95;;;12.25;;
72201;SDS011;60105;54.956;73.412;2023-03-01T11:33:47;25.98;;;13.45;;
72201;SDS011;60105;54.956;73.412;2023-03-01T11:36:56;24.55;;;12.48;;
72201;SDS011;60105;54.956;73.412;2023-03-01T11:40:17;20.33;;;10.83;;
72201;SDS011;60105;54.956;73.412;2023-03-01T11:43:57;19.88;;;12.55;;
72201;SDS011;60105;54.956;73.412;2023-03-01T11:50:44;20.83;;;10.98;;
72201;SDS011;60105;54.956;73.412;2023-03-01T11:54:17;32.05;;;13.23;;
72201;SDS011;60105;54.956;73.412;2023-03-01T12:07:53;20.85;;;10.70;;
72201;SDS011;60105;54.956;73.412;2023-03-01T12:11:11;25.77;;;13.10;;
72201;SDS011;60105;54.956;73.412;2023-03-01T12:20:58;20.03;;;10.00;;
72201;SDS011;60105;54.956;73.412;2023-03-01T12:24:37;23.27;;;9.45;;
72201;SDS011;60105;54.956;73.412;2023-03-01T12:28:20;21.58;;;10.57;;
72201;SDS011;60105;54.956;73.412;2023-03-01T12:45:12;28.23;;;12.37;;
72201;SDS011;60105;54.956;73.412;2023-03-01T12:48:24;25.27;;;11.27;;
72201;SDS011;60105;54.956;73.412;2023-03-01T12:51:42;22.80;;;10.23;;
72201;SDS011;60105;54.956;73.412;2023-03-01T12:54:47;22.30;;;12.00;;
72201;SDS011;60105;54.956;73.412;2023-03-01T12:58:12;22.88;;;11.13;;
72201;SDS011;60105;54.956;73.412;2023-03-01T13:08:56;17.60;;;9.73;;
72201;SDS011;60105;54.956;73.412;2023-03-01T13:16:38;19.63;;;10.23;;
72201;SDS011;60105;54.956;73.412;2023-03-01T13:19:43;15.40;;;7.53;;
72201;SDS011;60105;54.956;73.412;2023-03-01T13:26:24;19.17;;;9.47;;
72201;SDS011;60105;54.956;73.412;2023-03-01T13:42:41;21.00;;;9.63;;
72201;SDS011;60105;54.956;73.412;2023-03-01T13:45:44;22.77;;;10.80;;
72201;SDS011;60105;54.956;73.412;2023-03-01T13:48:51;22.67;;;10.43;;
72201;SDS011;60105;54.956;73.412;2023-03-01T13:51:55;26.57;;;11.23;;
72201;SDS011;60105;54.956;73.412;2023-03-01T13:55:04;23.60;;;11.25;;
72201;SDS011;60105;54.956;73.412;2023-03-01T13:58:23;21.43;;;10.23;;
72201;SDS011;60105;54.956;73.412;2023-03-01T14:01:37;22.35;;;11.77;;
72201;SDS011;60105;54.956;73.412;2023-03-01T14:07:51;22.92;;;10.75;;
72201;SDS011;60105;54.956;73.412;2023-03-01T14:10:57;21.42;;;11.32;;
72201;SDS011;60105;54.956;73.412;2023-03-01T14:20:54;25.13;;;12.88;;
72201;SDS011;60105;54.956;73.412;2023-03-01T14:24:15;22.65;;;10.73;;
72201;SDS011;60105;54.956;73.412;2023-03-01T14:27:18;24.55;;;11.20;;
72201;SDS011;60105;54.956;73.412;2023-03-01T14:30:21;24.73;;;11.60;;
72201;SDS011;60105;54.956;73.412;2023-03-01T14:33:38;17.13;;;10.70;;
72201;SDS011;60105;54.956;73.412;2023-03-01T14:36:46;21.13;;;12.13;;
72201;SDS011;60105;54.956;73.412;2023-03-01T14:39:58;23.17;;;11.23;;
72201;SDS011;60105;54.956;73.412;2023-03-01T14:43:13;21.52;;;10.18;;
72201;SDS011;60105;54.956;73.412;2023-03-01T14:46:26;18.77;;;9.03;;
72201;SDS011;60105;54.956;73.412;2023-03-01T14:49:43;16.75;;;9.15;;
72201;SDS011;60105;54.956;73.412;2023-03-01T14:52:45;18.63;;;10.15;;
72201;SDS011;60105;54.956;73.412;2023-03-01T14:55:50;21.03;;;9.43;;
72201;SDS011;60105;54.956;73.412;2023-03-01T14:59:38;15.27;;;9.25;;
72201;SDS011;60105;54.956;73.412;2023-03-01T15:02:54;21.02;;;10.55;;
72201;SDS011;60105;54.956;73.412;2023-03-01T15:06:08;22.47;;;10.83;;
72201;SDS011;60105;54.956;73.412;2023-03-01T15:09:39;23.80;;;10.93;;
72201;SDS011;60105;54.956;73.412;2023-03-01T15:12:45;22.27;;;12.50;;
72201;SDS011;60105;54.956;73.412;2023-03-01T15:15:53;21.90;;;11.93;;
72201;SDS011;60105;54.956;73.412;2023-03-01T15:19:38;22.40;;;11.23;;
72201;SDS011;60105;54.956;73.412;2023-03-01T15:22:42;21.92;;;11.43;;
72201;SDS011;60105;54.956;73.412;2023-03-01T15:25:52;26.37;;;11.10;;
72201;SDS011;60105;54.956;73.412;2023-03-01T15:29:38;24.40;;;9.35;;
72201;SDS011;60105;54.956;73.412;2023-03-01T15:32:41;24.50;;;13.13;;
72201;SDS011;60105;54.956;73.412;2023-03-01T15:35:49;26.23;;;11.73;;
72201;SDS011;60105;54.956;73.412;2023-03-01T15:39:40;27.32;;;12.40;;
72201;SDS011;60105;54.956;73.412;2023-03-01T15:42:44;26.05;;;13.50;;
72201;SDS011;60105;54.956;73.412;2023-03-01T15:45:46;28.83;;;11.80;;
72201;SDS011;60105;54.956;73.412;2023-03-01T15:49:39;27.18;;;12.87;;
72201;SDS011;60105;54.956;73.412;2023-03-01T15:52:43;34.90;;;13.60;;
72201;SDS011;60105;54.956;73.412;2023-03-01T15:55:45;29.30;;;13.60;;
72201;SDS011;60105;54.956;73.412;2023-03-01T15:58:50;24.33;;;12.52;;
72201;SDS011;60105;54.956;73.412;2023-03-01T16:01:51;23.73;;;12.53;;
72201;SDS011;60105;54.956;73.412;2023-03-01T16:05:01;22.85;;;11.07;;
72201;SDS011;60105;54.956;73.412;2023-03-01T16:08:08;22.88;;;11.70;;
72201;SDS011;60105;54.956;73.412;2023-03-01T16:11:14;26.60;;;12.10;;
72201;SDS011;60105;54.956;73.412;2023-03-01T16:17:40;26.40;;;11.07;;
72201;SDS011;60105;54.956;73.412;2023-03-01T16:20:41;20.15;;;10.57;;
72201;SDS011;60105;54.956;73.412;2023-03-01T16:23:53;19.77;;;9.67;;
72201;SDS011;60105;54.956;73.412;2023-03-01T16:27:03;19.23;;;10.73;;
72201;SDS011;60105;54.956;73.412;2023-03-01T16:30:05;22.00;;;10.70;;
72201;SDS011;60105;54.956;73.412;2023-03-01T16:33:17;18.58;;;10.02;;
72201;SDS011;60105;54.956;73.412;2023-03-01T16:36:24;22.42;;;10.80;;
72201;SDS011;60105;54.956;73.412;2023-03-01T16:42:39;20.70;;;10.20;;
72201;SDS011;60105;54.956;73.412;2023-03-01T16:45:41;23.17;;;11.52;;
72201;SDS011;60105;54.956;73.412;2023-03-01T16:48:50;24.58;;;12.52;;
72201;SDS011;60105;54.956;73.412;2023-03-01T16:51:55;23.00;;;11.20;;
72201;SDS011;60105;54.956;73.412;2023-03-01T16:55:02;24.43;;;11.97;;
72201;SDS011;60105;54.956;73.412;2023-03-01T16:58:15;22.30;;;12.68;;
72201;SDS011;60105;54.956;73.412;2023-03-01T17:01:22;23.17;;;11.60;;
72201;SDS011;60105;54.956;73.412;2023-03-01T17:07:40;29.52;;;11.48;;
72201;SDS011;60105;54.956;73.412;2023-03-01T17:10:47;22.92;;;11.52;;
72201;SDS011;60105;54.956;73.412;2023-03-01T17:13:54;20.40;;;10.13;;
72201;SDS011;60105;54.956;73.412;2023-03-01T17:16:57;23.77;;;11.05;;
72201;SDS011;60105;54.956;73.412;2023-03-01T17:19:58;24.70;;;12.13;;
72201;SDS011;60105;54.956;73.412;2023-03-01T17:22:59;23.33;;;12.18;;
72201;SDS011;60105;54.956;73.412;2023-03-01T17:26:00;25.97;;;11.43;;
72201;SDS011;60105;54.956;73.412;2023-03-01T17:29:39;18.77;;;10.23;;
72201;SDS011;60105;54.956;73.412;2023-03-01T17:32:41;24.65;;;11.15;;
72201;SDS011;60105;54.956;73.412;2023-03-01T17:35:42;22.60;;;12.23;;
72201;SDS011;60105;54.956;73.412;2023-03-01T17:38:48;23.00;;;12.07;;
72201;SDS011;60105;54.956;73.412;2023-03-01T17:41:59;23.90;;;11.32;;
72201;SDS011;60105;54.956;73.412;2023-03-01T17:45:01;21.97;;;10.43;;
72201;SDS011;60105;54.956;73.412;2023-03-01T17:48:14;19.35;;;9.93;;
72201;SDS011;60105;54.956;73.412;2023-03-01T17:51:20;20.90;;;11.30;;
72201;SDS011;60105;54.956;73.412;2023-03-01T17:54:22;23.48;;;10.88;;
72201;SDS011;60105;54.956;73.412;2023-03-01T17:57:24;20.15;;;9.93;;
72201;SDS011;60105;54.956;73.412;2023-03-01T18:00:25;16.60;;;9.13;;
72201;SDS011;60105;54.956;73.412;2023-03-01T18:03:36;21.90;;;10.23;;
72201;SDS011;60105;54.956;73.412;2023-03-01T18:06:38;21.23;;;9.87;;
72201;SDS011;60105;54.956;73.412;2023-03-01T18:09:50;16.70;;;9.00;;
72201;SDS011;60105;54.956;73.412;2023-03-01T18:12:51;16.85;;;8.90;;
72201;SDS011;60105;54.956;73.412;2023-03-01T18:15:53;20.13;;;9.68;;
72201;SDS011;60105;54.956;73.412;2023-03-01T18:19:39;14.48;;;7.18;;
72201;SDS011;60105;54.956;73.412;2023-03-01T18:22:41;18.55;;;9.20;;
72201;SDS011;60105;54.956;73.412;2023-03-01T18:25:56;18.48;;;8.20;;
72201;SDS011;60105;54.956;73.412;2023-03-01T18:29:38;18.35;;;8.25;;
72201;SDS011;60105;54.956;73.412;2023-03-01T18:32:40;18.30;;;9.13;;
72201;SDS011;60105;54.956;73.412;2023-03-01T18:35:47;20.00;;;9.07;;
72201;SDS011;60105;54.956;73.412;2023-03-01T18:39:38;16.78;;;8.76;;
72201;SDS011;60105;54.956;73.412;2023-03-01T18:42:41;14.82;;;8.32;;
72201;SDS011;60105;54.956;73.412;2023-03-01T18:45:42;15.30;;;8.95;;
72201;SDS011;60105;54.956;73.412;2023-03-01T18:48:45;12.00;;;7.57;;
72201;SDS011;60105;54.956;73.412;2023-03-01T18:51:47;12.30;;;7.43;;
72201;SDS011;60105;54.956;73.412;2023-03-01T18:55:01;12.27;;;7.20;;
72201;SDS011;60105;54.956;73.412;2023-03-01T18:58:04;13.88;;;7.68;;
72201;SDS011;60105;54.956;73.412;2023-03-01T19:01:14;12.65;;;7.82;;
72201;SDS011;60105;54.956;73.412;2023-03-01T19:07:40;17.45;;;7.38;;
72201;SDS011;60105;54.956;73.412;2023-03-01T19:10:59;15.23;;;7.53;;
72201;SDS011;60105;54.956;73.412;2023-03-01T19:14:38;18.88;;;7.80;;
72201;SDS011;60105;54.956;73.412;2023-03-01T19:17:40;12.43;;;7.18;;
72201;SDS011;60105;54.956;73.412;2023-03-01T19:20:42;13.80;;;7.32;;
72201;SDS011;60105;54.956;73.412;2023-03-01T19:23:43;14.32;;;6.40;;
72201;SDS011;60105;54.956;73.412;2023-03-01T19:26:45;13.27;;;6.82;;
72201;SDS011;60105;54.956;73.412;2023-03-01T19:29:56;16.40;;;9.43;;
72201;SDS011;60105;54.956;73.412;2023-03-01T19:33:08;13.02;;;6.75;;
72201;SDS011;60105;54.956;73.412;2023-03-01T19:36:10;12.15;;;6.95;;
72201;SDS011;60105;54.956;73.412;2023-03-01T19:39:38;11.68;;;5.50;;
72201;SDS011;60105;54.956;73.412;2023-03-01T19:42:41;13.65;;;7.60;;
72201;SDS011;60105;54.956;73.412;2023-03-01T19:45:51;12.57;;;6.57;;
72201;SDS011;60105;54.956;73.412;2023-03-01T19:49:38;13.59;;;7.55;;
72201;SDS011;60105;54.956;73.412;2023-03-01T19:52:40;15.10;;;7.32;;
72201;SDS011;60105;54.956;73.412;2023-03-01T19:55:41;13.70;;;6.87;;
72201;SDS011;60105;54.956;73.412;2023-03-01T19:58:47;14.23;;;8.07;;
72201;SDS011;60105;54.956;73.412;2023-03-01T20:01:50;12.10;;;6.93;;
72201;SDS011;60105;54.956;73.412;2023-03-01T20:04:52;11.77;;;6.53;;
72201;SDS011;60105;54.956;73.412;2023-03-01T20:07:55;10.75;;;6.75;;
72201;SDS011;60105;54.956;73.412;2023-03-01T20:11:07;16.08;;;7.70;;
72201;SDS011;60105;54.956;73.412;2023-03-01T20:14:38;11.98;;;7.18;;
72201;SDS011;60105;54.956;73.412;2023-03-01T20:17:49;13.53;;;7.47;;
72201;SDS011;60105;54.956;73.412;2023-03-01T20:20:50;15.82;;;8.27;;
72201;SDS011;60105;54.956;73.412;2023-03-01T20:23:52;18.23;;;8.88;;
72201;SDS011;60105;54.956;73.412;2023-03-01T20:26:54;14.27;;;7.40;;
72201;SDS011;60105;54.956;73.412;2023-03-01T20:29:55;17.05;;;6.82;;
72201;SDS011;60105;54.956;73.412;2023-03-01T20:32:56;12.82;;;7.00;;
72201;SDS011;60105;54.956;73.412;2023-03-01T20:35:57;14.63;;;8.13;;
72201;SDS011;60105;54.956;73.412;2023-03-01T20:39:38;17.70;;;7.13;;
72201;SDS011;60105;54.956;73.412;2023-03-01T20:42:50;13.80;;;7.78;;
72201;SDS011;60105;54.956;73.412;2023-03-01T20:45:51;16.65;;;7.57;;
72201;SDS011;60105;54.956;73.412;2023-03-01T20:48:52;12.40;;;7.10;;
72201;SDS011;60105;54.956;73.412;2023-03-01T20:51:54;14.23;;;7.50;;
72201;SDS011;60105;54.956;73.412;2023-03-01T20:54:55;12.77;;;6.33;;
72201;SDS011;60105;54.956;73.412;2023-03-01T20:57:56;13.57;;;7.53;;
72201;SDS011;60105;54.956;73.412;2023-03-01T21:00:58;13.10;;;7.70;;
72201;SDS011;60105;54.956;73.412;2023-03-01T21:04:38;11.18;;;5.70;;
72201;SDS011;60105;54.956;73.412;2023-03-01T21:07:45;17.20;;;7.80;;
72201;SDS011;60105;54.956;73.412;2023-03-01T21:10:50;13.15;;;6.85;;